sensor_id;sensor_type;location;lat;lon;timestamp;temperature;humidity
26272;DHT22;13997;48.902;12.472;2023-05-10T00:01:55;358.60;2329.60
26272;DHT22;13997;48.902;12.472;2023-05-10T00:04:21;358.60;2329.60
26272;DHT22;13997;48.902;12.472;2023-05-10T00:06:47;358.60;2329.60
26272;DHT22;13997;48.902;12.472;2023-05-10T00:09:13;358.60;2329.60
26272;DHT22;13997;48.902;12.472;2023-05-10T00:11:38;358.60;2329.60
26272;DHT22;13997;48.902;12.472;2023-05-10T00:14:04;358.60;2329.60
26272;DHT22;13997;48.902;12.472;2023-05-10T00:16:30;358.60;2329.60
26272;DHT22;13997;48.902;12.472;2023-05-10T00:18:55;358.60;2329.60
26272;DHT22;13997;48.902;12.472;2023-05-10T00:21:21;358.60;2329.60
26272;DHT22;13997;48.902;12.472;2023-05-10T00:23:46;358.60;2329.60
26272;DHT22;13997;48.902;12.472;2023-05-10T00:26:12;358.60;2329.60
26272;DHT22;13997;48.902;12.472;2023-05-10T00:28:38;358.60;2329.60
26272;DHT22;13997;48.902;12.472;2023-05-10T00:31:03;358.50;2329.60
26272;DHT22;13997;48.902;12.472;2023-05-10T00:33:29;358.50;2329.60
26272;DHT22;13997;48.902;12.472;2023-05-10T00:35:54;358.50;2329.60
26272;DHT22;13997;48.902;12.472;2023-05-10T00:38:20;358.50;2329.60
26272;DHT22;13997;48.902;12.472;2023-05-10T00:40:46;358.50;2329.60
26272;DHT22;13997;48.902;12.472;2023-05-10T00:43:11;358.50;2329.60
26272;DHT22;13997;48.902;12.472;2023-05-10T00:45:38;358.40;2329.60
26272;DHT22;13997;48.902;12.472;2023-05-10T00:48:05;358.40;2329.60
26272;DHT22;13997;48.902;12.472;2023-05-10T00:50:32;358.40;2329.60
26272;DHT22;13997;48.902;12.472;2023-05-10T00:52:59;358.40;2329.60
26272;DHT22;13997;48.902;12.472;2023-05-10T00:55:26;358.40;2329.60
26272;DHT22;13997;48.902;12.472;2023-05-10T00:57:53;358.40;2329.60
26272;DHT22;13997;48.902;12.472;2023-05-10T01:00:18;333.70;2329.60
26272;DHT22;13997;48.902;12.472;2023-05-10T01:02:45;333.70;2329.60
26272;DHT22;13997;48.902;12.472;2023-05-10T01:05:11;333.70;2329.60
26272;DHT22;13997;48.902;12.472;2023-05-10T01:07:37;333.70;2329.60
26272;DHT22;13997;48.902;12.472;2023-05-10T01:10:03;333.70;2329.60
26272;DHT22;13997;48.902;12.472;2023-05-10T01:12:29;333.70;2329.60
26272;DHT22;13997;48.902;12.472;2023-05-10T01:14:55;333.70;2329.60
26272;DHT22;13997;48.902;12.472;2023-05-10T01:17:21;333.70;2329.60
26272;DHT22;13997;48.902;12.472;2023-05-10T01:19:47;333.70;2329.60
26272;DHT22;13997;48.902;12.472;2023-05-10T01:22:40;333.60;2329.60
26272;DHT22;13997;48.902;12.472;2023-05-10T01:25:31;333.70;2329.60
26272;DHT22;13997;48.902;12.472;2023-05-10T01:36:27;333.70;2329.60
26272;DHT22;13997;48.902;12.472;2023-05-10T01:39:15;333.70;2329.60
26272;DHT22;13997;48.902;12.472;2023-05-10T01:41:52;333.70;2329.60
26272;DHT22;13997;48.902;12.472;2023-05-10T01:44:34;333.70;2329.60
26272;DHT22;13997;48.902;12.472;2023-05-10T01:47:26;333.70;2329.60
26272;DHT22;13997;48.902;12.472;2023-05-10T01:49:55;333.70;2329.60
26272;DHT22;13997;48.902;12.472;2023-05-10T01:52:26;333.70;2329.60
26272;DHT22;13997;48.902;12.472;2023-05-10T01:55:00;333.70;2329.60
26272;DHT22;13997;48.902;12.472;2023-05-10T01:57:30;333.70;2329.60
26272;DHT22;13997;48.902;12.472;2023-05-10T01:59:59;333.70;2329.60
26272;DHT22;13997;48.902;12.472;2023-05-10T02:02:27;333.70;2329.60
26272;DHT22;13997;48.902;12.472;2023-05-10T02:04:54;333.70;2329.60
26272;DHT22;13997;48.902;12.472;2023-05-10T02:07:21;333.70;2329.60
26272;DHT22;13997;48.902;12.472;2023-05-10T02:09:48;333.70;2329.60
26272;DHT22;13997;48.902;12.472;2023-05-10T02:12:15;333.70;2329.60
26272;DHT22;13997;48.902;12.472;2023-05-10T02:14:41;333.70;2329.60
26272;DHT22;13997;48.902;12.472;2023-05-10T02:17:08;333.70;2329.60
26272;DHT22;13997;48.902;12.472;2023-05-10T02:19:36;333.70;2329.60
26272;DHT22;13997;48.902;12.472;2023-05-10T02:22:03;333.70;2329.60
26272;DHT22;13997;48.902;12.472;2023-05-10T02:24:29;333.70;2329.60
26272;DHT22;13997;48.902;12.472;2023-05-10T02:26:55;333.70;2329.60
26272;DHT22;13997;48.902;12.472;2023-05-10T02:29:23;333.70;2329.60
26272;DHT22;13997;48.902;12.472;2023-05-10T02:31:53;333.70;2329.60
26272;DHT22;13997;48.902;12.472;2023-05-10T02:34:21;333.60;2329.60
26272;DHT22;13997;48.902;12.472;2023-05-10T02:36:47;333.60;2329.60
26272;DHT22;13997;48.902;12.472;2023-05-10T02:39:14;333.60;2329.60
26272;DHT22;13997;48.902;12.472;2023-05-10T02:41:42;333.60;2329.60
26272;DHT22;13997;48.902;12.472;2023-05-10T02:44:08;333.60;2329.60
26272;DHT22;13997;48.902;12.472;2023-05-10T02:46:35;333.60;2329.60
26272;DHT22;13997;48.902;12.472;2023-05-10T02:49:02;333.60;2329.60
26272;DHT22;13997;48.902;12.472;2023-05-10T02:51:31;333.60;2329.60
26272;DHT22;13997;48.902;12.472;2023-05-10T02:53:57;333.60;2329.60
26272;DHT22;13997;48.902;12.472;2023-05-10T02:56:36;333.60;2329.60
26272;DHT22;13997;48.902;12.472;2023-05-10T02:59:06;333.60;2329.60
26272;DHT22;13997;48.902;12.472;2023-05-10T03:01:31;333.50;2329.60
26272;DHT22;13997;48.902;12.472;2023-05-10T03:03:57;333.50;2329.60
26272;DHT22;13997;48.902;12.472;2023-05-10T03:06:23;333.50;2329.60
26272;DHT22;13997;48.902;12.472;2023-05-10T03:08:49;333.50;2329.60
26272;DHT22;13997;48.902;12.472;2023-05-10T03:14:38;333.50;2329.60
26272;DHT22;13997;48.902;12.472;2023-05-10T03:19:55;333.40;2329.60
26272;DHT22;13997;48.902;12.472;2023-05-10T03:22:23;333.40;2329.60
26272;DHT22;13997;48.902;12.472;2023-05-10T03:24:53;333.40;2329.60
26272;DHT22;13997;48.902;12.472;2023-05-10T03:27:19;333.30;2329.60
26272;DHT22;13997;48.902;12.472;2023-05-10T03:29:46;333.30;2329.60
26272;DHT22;13997;48.902;12.472;2023-05-10T03:32:11;333.30;2329.60
26272;DHT22;13997;48.902;12.472;2023-05-10T03:34:41;333.30;2329.60
26272;DHT22;13997;48.902;12.472;2023-05-10T03:37:08;333.30;2329.60
26272;DHT22;13997;48.902;12.472;2023-05-10T03:39:34;333.20;2329.60
26272;DHT22;13997;48.902;12.472;2023-05-10T03:41:59;333.20;2329.60
26272;DHT22;13997;48.902;12.472;2023-05-10T03:44:25;333.10;2329.60
26272;DHT22;13997;48.902;12.472;2023-05-10T03:46:50;333.10;2329.60
26272;DHT22;13997;48.902;12.472;2023-05-10T03:49:16;333.10;2329.60
26272;DHT22;13997;48.902;12.472;2023-05-10T03:51:41;333.10;2329.60
26272;DHT22;13997;48.902;12.472;2023-05-10T03:54:07;333.10;2329.60
26272;DHT22;13997;48.902;12.472;2023-05-10T03:56:33;333.10;2329.60
26272;DHT22;13997;48.902;12.472;2023-05-10T03:58:58;333.10;2329.60
26272;DHT22;13997;48.902;12.472;2023-05-10T04:01:24;333.00;2329.60
26272;DHT22;13997;48.902;12.472;2023-05-10T04:03:49;333.00;2329.60
26272;DHT22;13997;48.902;12.472;2023-05-10T04:06:15;333.00;2329.60
26272;DHT22;13997;48.902;12.472;2023-05-10T04:08:40;333.00;2329.60
26272;DHT22;13997;48.902;12.472;2023-05-10T04:11:07;332.90;2329.60
26272;DHT22;13997;48.902;12.472;2023-05-10T04:13:33;332.90;2329.60
26272;DHT22;13997;48.902;12.472;2023-05-10T04:15:59;332.90;2329.60
26272;DHT22;13997;48.902;12.472;2023-05-10T04:18:24;332.80;2329.60
26272;DHT22;13997;48.902;12.472;2023-05-10T04:20:50;332.80;2329.60
26272;DHT22;13997;48.902;12.472;2023-05-10T04:23:15;332.80;2329.60
26272;DHT22;13997;48.902;12.472;2023-05-10T04:25:42;308.10;2304.00
26272;DHT22;13997;48.902;12.472;2023-05-10T04:28:08;308.10;2304.00
26272;DHT22;13997;48.902;12.472;2023-05-10T04:30:34;308.10;2304.00
26272;DHT22;13997;48.902;12.472;2023-05-10T04:33:00;308.00;2304.00
26272;DHT22;13997;48.902;12.472;2023-05-10T04:35:27;308.00;2304.00
26272;DHT22;13997;48.902;12.472;2023-05-10T04:37:53;308.00;2304.00
26272;DHT22;13997;48.902;12.472;2023-05-10T04:40:19;308.00;2304.00
26272;DHT22;13997;48.902;12.472;2023-05-10T04:42:45;307.90;2304.00
26272;DHT22;13997;48.902;12.472;2023-05-10T04:45:10;307.90;2304.00
26272;DHT22;13997;48.902;12.472;2023-05-10T04:47:36;307.90;2304.00
26272;DHT22;13997;48.902;12.472;2023-05-10T04:50:05;307.90;2304.00
26272;DHT22;13997;48.902;12.472;2023-05-10T04:52:31;307.80;2304.00
26272;DHT22;13997;48.902;12.472;2023-05-10T04:54:57;307.80;2304.00
26272;DHT22;13997;48.902;12.472;2023-05-10T04:57:23;307.70;2304.00
26272;DHT22;13997;48.902;12.472;2023-05-10T04:59:48;307.60;2304.00
26272;DHT22;13997;48.902;12.472;2023-05-10T05:02:14;307.60;2304.00
26272;DHT22;13997;48.902;12.472;2023-05-10T05:04:39;307.60;2304.00
26272;DHT22;13997;48.902;12.472;2023-05-10T05:07:05;307.60;2304.00
26272;DHT22;13997;48.902;12.472;2023-05-10T05:09:30;307.60;2304.00
26272;DHT22;13997;48.902;12.472;2023-05-10T05:11:57;307.60;2304.00
26272;DHT22;13997;48.902;12.472;2023-05-10T05:14:23;307.60;2304.00
26272;DHT22;13997;48.902;12.472;2023-05-10T05:16:51;307.60;2304.00
26272;DHT22;13997;48.902;12.472;2023-05-10T05:19:16;307.60;2304.00
26272;DHT22;13997;48.902;12.472;2023-05-10T05:21:42;307.60;2304.00
26272;DHT22;13997;48.902;12.472;2023-05-10T05:24:08;307.60;2304.00
26272;DHT22;13997;48.902;12.472;2023-05-10T05:26:33;307.50;2304.00
26272;DHT22;13997;48.902;12.472;2023-05-10T05:28:59;307.60;2304.00
26272;DHT22;13997;48.902;12.472;2023-05-10T05:31:24;307.60;2304.00
26272;DHT22;13997;48.902;12.472;2023-05-10T05:33:50;307.50;2304.00
26272;DHT22;13997;48.902;12.472;2023-05-10T05:36:16;307.50;2304.00
26272;DHT22;13997;48.902;12.472;2023-05-10T05:38:42;307.50;2304.00
26272;DHT22;13997;48.902;12.472;2023-05-10T05:41:08;307.50;2304.00
26272;DHT22;13997;48.902;12.472;2023-05-10T05:43:33;307.40;2304.00
26272;DHT22;13997;48.902;12.472;2023-05-10T05:45:59;307.30;2304.00
26272;DHT22;13997;48.902;12.472;2023-05-10T05:48:25;307.40;2304.00
26272;DHT22;13997;48.902;12.472;2023-05-10T05:50:54;307.40;2304.00
26272;DHT22;13997;48.902;12.472;2023-05-10T05:53:20;307.40;2304.00
26272;DHT22;13997;48.902;12.472;2023-05-10T05:55:54;307.40;2304.00
26272;DHT22;13997;48.902;12.472;2023-05-10T05:58:20;307.30;2304.00
26272;DHT22;13997;48.902;12.472;2023-05-10T06:00:46;307.30;2304.00
26272;DHT22;13997;48.902;12.472;2023-05-10T06:03:12;307.30;2304.00
26272;DHT22;13997;48.902;12.472;2023-05-10T06:05:37;307.30;2304.00
26272;DHT22;13997;48.902;12.472;2023-05-10T06:08:03;307.40;2304.00
26272;DHT22;13997;48.902;12.472;2023-05-10T06:10:29;307.40;2304.00
26272;DHT22;13997;48.902;12.472;2023-05-10T06:12:55;307.30;2304.00
26272;DHT22;13997;48.902;12.472;2023-05-10T06:15:21;307.30;2304.00
26272;DHT22;13997;48.902;12.472;2023-05-10T06:17:47;307.30;2304.00
26272;DHT22;13997;48.902;12.472;2023-05-10T06:20:14;307.30;2304.00
26272;DHT22;13997;48.902;12.472;2023-05-10T06:22:40;307.30;2304.00
26272;DHT22;13997;48.902;12.472;2023-05-10T06:25:06;307.30;2304.00
26272;DHT22;13997;48.902;12.472;2023-05-10T06:27:32;307.30;2304.00
26272;DHT22;13997;48.902;12.472;2023-05-10T06:29:58;307.30;2304.00
26272;DHT22;13997;48.902;12.472;2023-05-10T06:32:23;307.30;2304.00
26272;DHT22;13997;48.902;12.472;2023-05-10T06:34:49;307.20;2304.00
26272;DHT22;13997;48.902;12.472;2023-05-10T06:37:14;307.20;2304.00
26272;DHT22;13997;48.902;12.472;2023-05-10T06:39:40;307.20;2304.00
26272;DHT22;13997;48.902;12.472;2023-05-10T06:42:06;307.30;2304.00
26272;DHT22;13997;48.902;12.472;2023-05-10T06:44:31;307.40;2304.00
26272;DHT22;13997;48.902;12.472;2023-05-10T06:46:57;307.40;2304.00
26272;DHT22;13997;48.902;12.472;2023-05-10T06:49:23;307.40;2304.00
26272;DHT22;13997;48.902;12.472;2023-05-10T06:51:48;307.30;2304.00
26272;DHT22;13997;48.902;12.472;2023-05-10T06:54:14;307.30;2304.00
26272;DHT22;13997;48.902;12.472;2023-05-10T06:56:39;307.40;2304.00
26272;DHT22;13997;48.902;12.472;2023-05-10T06:59:05;307.50;2304.00
26272;DHT22;13997;48.902;12.472;2023-05-10T07:01:31;307.40;2304.00
26272;DHT22;13997;48.902;12.472;2023-05-10T07:03:56;307.40;2304.00
26272;DHT22;13997;48.902;12.472;2023-05-10T07:06:22;307.40;2304.00
26272;DHT22;13997;48.902;12.472;2023-05-10T07:08:47;307.30;2304.00
26272;DHT22;13997;48.902;12.472;2023-05-10T07:11:13;307.30;2304.00
26272;DHT22;13997;48.902;12.472;2023-05-10T07:13:39;307.20;2304.00
26272;DHT22;13997;48.902;12.472;2023-05-10T07:16:07;307.30;2304.00
26272;DHT22;13997;48.902;12.472;2023-05-10T07:18:33;307.30;2304.00
26272;DHT22;13997;48.902;12.472;2023-05-10T07:20:58;307.50;2304.00
26272;DHT22;13997;48.902;12.472;2023-05-10T07:23:24;307.60;2304.00
26272;DHT22;13997;48.902;12.472;2023-05-10T07:25:51;307.70;2304.00
26272;DHT22;13997;48.902;12.472;2023-05-10T07:28:18;307.80;2304.00
26272;DHT22;13997;48.902;12.472;2023-05-10T07:30:44;307.80;2304.00
26272;DHT22;13997;48.902;12.472;2023-05-10T07:33:10;307.80;2304.00
26272;DHT22;13997;48.902;12.472;2023-05-10T07:35:36;307.80;2304.00
26272;DHT22;13997;48.902;12.472;2023-05-10T07:38:02;307.80;2304.00
26272;DHT22;13997;48.902;12.472;2023-05-10T07:40:28;307.80;2304.00
26272;DHT22;13997;48.902;12.472;2023-05-10T07:42:54;307.90;2304.00
26272;DHT22;13997;48.902;12.472;2023-05-10T07:45:20;308.00;2304.00
26272;DHT22;13997;48.902;12.472;2023-05-10T07:47:46;308.00;2304.00
26272;DHT22;13997;48.902;12.472;2023-05-10T07:50:11;308.00;2304.00
26272;DHT22;13997;48.902;12.472;2023-05-10T07:52:37;308.00;2304.00
26272;DHT22;13997;48.902;12.472;2023-05-10T07:55:03;308.00;2304.00
26272;DHT22;13997;48.902;12.472;2023-05-10T07:57:28;308.10;2304.00
26272;DHT22;13997;48.902;12.472;2023-05-10T07:59:54;308.10;2304.00
26272;DHT22;13997;48.902;12.472;2023-05-10T08:02:19;308.00;2304.00
26272;DHT22;13997;48.902;12.472;2023-05-10T08:04:45;308.10;2304.00
26272;DHT22;13997;48.902;12.472;2023-05-10T08:07:11;332.80;2329.60
26272;DHT22;13997;48.902;12.472;2023-05-10T08:09:36;332.90;2329.60
26272;DHT22;13997;48.902;12.472;2023-05-10T08:12:02;333.00;2329.60
26272;DHT22;13997;48.902;12.472;2023-05-10T08:14:28;333.10;2329.60
26272;DHT22;13997;48.902;12.472;2023-05-10T08:16:54;333.10;2329.60
26272;DHT22;13997;48.902;12.472;2023-05-10T08:19:20;333.10;2329.60
26272;DHT22;13997;48.902;12.472;2023-05-10T08:21:47;333.10;2329.60
26272;DHT22;13997;48.902;12.472;2023-05-10T08:24:13;333.20;2329.60
26272;DHT22;13997;48.902;12.472;2023-05-10T08:26:38;333.30;2329.60
26272;DHT22;13997;48.902;12.472;2023-05-10T08:29:04;333.30;2329.60
26272;DHT22;13997;48.902;12.472;2023-05-10T08:31:30;333.30;2329.60
26272;DHT22;13997;48.902;12.472;2023-05-10T08:33:55;333.40;2329.60
26272;DHT22;13997;48.902;12.472;2023-05-10T08:36:21;333.50;2329.60
26272;DHT22;13997;48.902;12.472;2023-05-10T08:38:52;333.40;2329.60
26272;DHT22;13997;48.902;12.472;2023-05-10T08:41:20;333.40;2329.60
26272;DHT22;13997;48.902;12.472;2023-05-10T08:43:55;333.50;2329.60
26272;DHT22;13997;48.902;12.472;2023-05-10T08:46:22;333.60;2329.60
26272;DHT22;13997;48.902;12.472;2023-05-10T08:48:51;333.60;2329.60
26272;DHT22;13997;48.902;12.472;2023-05-10T08:51:22;358.40;2329.60
26272;DHT22;13997;48.902;12.472;2023-05-10T08:53:50;358.50;2329.60
26272;DHT22;13997;48.902;12.472;2023-05-10T08:56:16;358.70;2329.60
26272;DHT22;13997;48.902;12.472;2023-05-10T08:58:43;358.80;2329.60
26272;DHT22;13997;48.902;12.472;2023-05-10T09:01:09;358.80;2329.60
26272;DHT22;13997;48.902;12.472;2023-05-10T09:03:38;358.90;2329.60
26272;DHT22;13997;48.902;12.472;2023-05-10T09:06:04;359.00;2329.60
26272;DHT22;13997;48.902;12.472;2023-05-10T09:08:30;359.10;2329.60
26272;DHT22;13997;48.902;12.472;2023-05-10T09:10:56;359.10;2329.60
26272;DHT22;13997;48.902;12.472;2023-05-10T09:13:23;359.20;2329.60
26272;DHT22;13997;48.902;12.472;2023-05-10T09:15:50;359.20;2329.60
26272;DHT22;13997;48.902;12.472;2023-05-10T09:18:16;359.30;2329.60
26272;DHT22;13997;48.902;12.472;2023-05-10T09:20:42;384.00;2329.60
26272;DHT22;13997;48.902;12.472;2023-05-10T09:23:08;384.10;2329.60
26272;DHT22;13997;48.902;12.472;2023-05-10T09:25:33;384.20;2329.60
26272;DHT22;13997;48.902;12.472;2023-05-10T09:27:59;384.40;2329.60
26272;DHT22;13997;48.902;12.472;2023-05-10T09:30:26;384.50;2329.60
26272;DHT22;13997;48.902;12.472;2023-05-10T09:32:52;384.50;2329.60
26272;DHT22;13997;48.902;12.472;2023-05-10T09:35:20;384.70;2329.60
26272;DHT22;13997;48.902;12.472;2023-05-10T09:37:48;384.80;2329.60
26272;DHT22;13997;48.902;12.472;2023-05-10T09:40:22;384.90;2329.60
26272;DHT22;13997;48.902;12.472;2023-05-10T09:42:56;384.90;2329.60
26272;DHT22;13997;48.902;12.472;2023-05-10T09:45:23;409.60;2355.20
26272;DHT22;13997;48.902;12.472;2023-05-10T09:47:49;409.60;2355.20
26272;DHT22;13997;48.902;12.472;2023-05-10T09:50:15;409.80;2355.20
26272;DHT22;13997;48.902;12.472;2023-05-10T09:52:50;409.80;2355.20
26272;DHT22;13997;48.902;12.472;2023-05-10T09:55:18;410.00;2355.20
26272;DHT22;13997;48.902;12.472;2023-05-10T09:57:44;410.10;2355.20
26272;DHT22;13997;48.902;12.472;2023-05-10T10:00:10;410.20;2355.20
26272;DHT22;13997;48.902;12.472;2023-05-10T10:02:35;410.30;2355.20
26272;DHT22;13997;48.902;12.472;2023-05-10T10:05:02;410.40;2355.20
26272;DHT22;13997;48.902;12.472;2023-05-10T10:07:29;410.50;2355.20
26272;DHT22;13997;48.902;12.472;2023-05-10T10:09:55;410.50;2355.20
26272;DHT22;13997;48.902;12.472;2023-05-10T10:12:20;435.20;2355.20
26272;DHT22;13997;48.902;12.472;2023-05-10T10:14:47;410.40;2355.20
26272;DHT22;13997;48.902;12.472;2023-05-10T10:17:16;410.50;2355.20
26272;DHT22;13997;48.902;12.472;2023-05-10T10:19:42;410.40;2355.20
26272;DHT22;13997;48.902;12.472;2023-05-10T10:22:08;410.40;2355.20
26272;DHT22;13997;48.902;12.472;2023-05-10T10:24:37;410.40;2355.20
26272;DHT22;13997;48.902;12.472;2023-05-10T10:27:15;410.50;2355.20
26272;DHT22;13997;48.902;12.472;2023-05-10T10:32:59;435.50;2355.20
26272;DHT22;13997;48.902;12.472;2023-05-10T10:56:06;435.70;2355.20
26272;DHT22;13997;48.902;12.472;2023-05-10T10:58:33;461.00;2380.80
26272;DHT22;13997;48.902;12.472;2023-05-10T11:01:12;436.10;2355.20
26272;DHT22;13997;48.902;12.472;2023-05-10T11:03:38;435.90;2355.20
26272;DHT22;13997;48.902;12.472;2023-05-10T11:06:04;435.90;2355.20
26272;DHT22;13997;48.902;12.472;2023-05-10T11:08:31;435.70;2355.20
26272;DHT22;13997;48.902;12.472;2023-05-10T11:13:30;435.60;2355.20
26272;DHT22;13997;48.902;12.472;2023-05-10T11:15:56;435.60;2355.20
26272;DHT22;13997;48.902;12.472;2023-05-10T11:18:25;435.50;2355.20
26272;DHT22;13997;48.902;12.472;2023-05-10T11:20:55;435.60;2355.20
26272;DHT22;13997;48.902;12.472;2023-05-10T11:23:20;435.60;2355.20
26272;DHT22;13997;48.902;12.472;2023-05-10T11:25:47;435.50;2355.20
26272;DHT22;13997;48.902;12.472;2023-05-10T11:28:13;435.60;2355.20
26272;DHT22;13997;48.902;12.472;2023-05-10T11:30:40;435.70;2355.20
26272;DHT22;13997;48.902;12.472;2023-05-10T11:33:07;435.80;2355.20
26272;DHT22;13997;48.902;12.472;2023-05-10T11:35:42;436.00;2355.20
26272;DHT22;13997;48.902;12.472;2023-05-10T11:38:11;435.90;2355.20
26272;DHT22;13997;48.902;12.472;2023-05-10T11:40:38;436.00;2355.20
26272;DHT22;13997;48.902;12.472;2023-05-10T11:43:04;436.10;2355.20
26272;DHT22;13997;48.902;12.472;2023-05-10T11:45:35;461.00;2380.80
26272;DHT22;13997;48.902;12.472;2023-05-10T11:48:01;461.00;2380.80
26272;DHT22;13997;48.902;12.472;2023-05-10T11:50:27;461.20;2380.80
26272;DHT22;13997;48.902;12.472;2023-05-10T11:52:56;461.20;2380.80
26272;DHT22;13997;48.902;12.472;2023-05-10T11:55:22;461.10;2380.80
26272;DHT22;13997;48.902;12.472;2023-05-10T11:57:53;461.10;2380.80
26272;DHT22;13997;48.902;12.472;2023-05-10T12:00:19;461.10;2380.80
26272;DHT22;13997;48.902;12.472;2023-05-10T12:02:45;461.10;2380.80
26272;DHT22;13997;48.902;12.472;2023-05-10T12:05:11;461.10;2380.80
26272;DHT22;13997;48.902;12.472;2023-05-10T12:07:36;460.90;2380.80
26272;DHT22;13997;48.902;12.472;2023-05-10T12:10:12;436.10;2355.20
26272;DHT22;13997;48.902;12.472;2023-05-10T12:12:45;461.00;2380.80
26272;DHT22;13997;48.902;12.472;2023-05-10T12:15:23;461.30;2380.80
26272;DHT22;13997;48.902;12.472;2023-05-10T14:27:27;461.60;2380.80
26272;DHT22;13997;48.902;12.472;2023-05-10T14:29:52;384.50;2329.60
26272;DHT22;13997;48.902;12.472;2023-05-10T14:32:19;384.50;2329.60
26272;DHT22;13997;48.902;12.472;2023-05-10T14:34:44;384.40;2329.60
26272;DHT22;13997;48.902;12.472;2023-05-10T14:37:11;384.30;2329.60
26272;DHT22;13997;48.902;12.472;2023-05-10T14:39:37;384.20;2329.60
26272;DHT22;13997;48.902;12.472;2023-05-10T14:42:03;384.20;2329.60
26272;DHT22;13997;48.902;12.472;2023-05-10T14:44:28;384.10;2329.60
26272;DHT22;13997;48.902;12.472;2023-05-10T14:46:54;384.10;2329.60
26272;DHT22;13997;48.902;12.472;2023-05-10T14:49:20;384.00;2329.60
26272;DHT22;13997;48.902;12.472;2023-05-10T14:51:48;384.00;2329.60
26272;DHT22;13997;48.902;12.472;2023-05-10T14:54:13;384.00;2329.60
26272;DHT22;13997;48.902;12.472;2023-05-10T14:56:39;384.10;2329.60
26272;DHT22;13997;48.902;12.472;2023-05-10T14:59:06;384.10;2329.60
26272;DHT22;13997;48.902;12.472;2023-05-10T15:01:32;384.10;2329.60
26272;DHT22;13997;48.902;12.472;2023-05-10T15:03:58;384.10;2329.60
26272;DHT22;13997;48.902;12.472;2023-05-10T15:06:30;384.20;2329.60
26272;DHT22;13997;48.902;12.472;2023-05-10T15:08:56;384.20;2329.60
26272;DHT22;13997;48.902;12.472;2023-05-10T15:11:22;384.10;2329.60
26272;DHT22;13997;48.902;12.472;2023-05-10T15:13:47;384.10;2329.60
26272;DHT22;13997;48.902;12.472;2023-05-10T15:16:13;384.10;2329.60
26272;DHT22;13997;48.902;12.472;2023-05-10T15:18:38;384.20;2329.60
26272;DHT22;13997;48.902;12.472;2023-05-10T15:21:04;384.20;2329.60
26272;DHT22;13997;48.902;12.472;2023-05-10T15:23:29;384.20;2329.60
26272;DHT22;13997;48.902;12.472;2023-05-10T15:25:55;384.30;2329.60
26272;DHT22;13997;48.902;12.472;2023-05-10T15:28:21;384.30;2329.60
26272;DHT22;13997;48.902;12.472;2023-05-10T15:30:47;384.30;2329.60
26272;DHT22;13997;48.902;12.472;2023-05-10T15:33:13;384.20;2329.60
26272;DHT22;13997;48.902;12.472;2023-05-10T15:35:39;384.20;2329.60
26272;DHT22;13997;48.902;12.472;2023-05-10T15:38:05;384.20;2329.60
26272;DHT22;13997;48.902;12.472;2023-05-10T15:40:31;384.10;2329.60
26272;DHT22;13997;48.902;12.472;2023-05-10T15:42:57;384.10;2329.60
26272;DHT22;13997;48.902;12.472;2023-05-10T15:45:22;384.00;2329.60
26272;DHT22;13997;48.902;12.472;2023-05-10T15:47:48;359.30;2329.60
26272;DHT22;13997;48.902;12.472;2023-05-10T15:50:14;359.30;2329.60
26272;DHT22;13997;48.902;12.472;2023-05-10T15:52:40;359.30;2329.60
26272;DHT22;13997;48.902;12.472;2023-05-10T15:55:08;359.20;2329.60
26272;DHT22;13997;48.902;12.472;2023-05-10T15:57:41;359.30;2329.60
26272;DHT22;13997;48.902;12.472;2023-05-10T16:00:09;359.30;2329.60
26272;DHT22;13997;48.902;12.472;2023-05-10T16:02:35;359.20;2329.60
26272;DHT22;13997;48.902;12.472;2023-05-10T16:05:02;359.30;2329.60
26272;DHT22;13997;48.902;12.472;2023-05-10T16:07:28;359.30;2329.60
26272;DHT22;13997;48.902;12.472;2023-05-10T16:09:53;359.30;2329.60
26272;DHT22;13997;48.902;12.472;2023-05-10T16:12:19;359.30;2329.60
26272;DHT22;13997;48.902;12.472;2023-05-10T16:14:45;359.30;2329.60
26272;DHT22;13997;48.902;12.472;2023-05-10T16:17:11;359.30;2329.60
26272;DHT22;13997;48.902;12.472;2023-05-10T16:19:36;384.00;2329.60
26272;DHT22;13997;48.902;12.472;2023-05-10T16:22:02;384.00;2329.60
26272;DHT22;13997;48.902;12.472;2023-05-10T16:24:28;384.10;2329.60
26272;DHT22;13997;48.902;12.472;2023-05-10T16:26:54;384.10;2329.60
26272;DHT22;13997;48.902;12.472;2023-05-10T16:29:20;384.00;2329.60
26272;DHT22;13997;48.902;12.472;2023-05-10T16:31:45;384.00;2329.60
26272;DHT22;13997;48.902;12.472;2023-05-10T16:34:11;384.00;2329.60
26272;DHT22;13997;48.902;12.472;2023-05-10T16:36:37;359.30;2329.60
26272;DHT22;13997;48.902;12.472;2023-05-10T16:39:03;384.00;2329.60
26272;DHT22;13997;48.902;12.472;2023-05-10T16:41:32;384.00;2329.60
26272;DHT22;13997;48.902;12.472;2023-05-10T16:43:57;384.00;2329.60
26272;DHT22;13997;48.902;12.472;2023-05-10T16:46:23;359.30;2329.60
26272;DHT22;13997;48.902;12.472;2023-05-10T16:48:48;359.30;2329.60
26272;DHT22;13997;48.902;12.472;2023-05-10T16:51:14;359.20;2329.60
26272;DHT22;13997;48.902;12.472;2023-05-10T16:53:40;359.20;2329.60
26272;DHT22;13997;48.902;12.472;2023-05-10T16:56:06;359.20;2329.60
26272;DHT22;13997;48.902;12.472;2023-05-10T16:58:32;359.20;2329.60
26272;DHT22;13997;48.902;12.472;2023-05-10T17:00:58;359.20;2329.60
26272;DHT22;13997;48.902;12.472;2023-05-10T17:03:24;359.10;2329.60
26272;DHT22;13997;48.902;12.472;2023-05-10T17:05:50;359.10;2329.60
26272;DHT22;13997;48.902;12.472;2023-05-10T17:08:15;359.10;2329.60
26272;DHT22;13997;48.902;12.472;2023-05-10T17:10:41;359.10;2329.60
26272;DHT22;13997;48.902;12.472;2023-05-10T17:13:07;359.10;2329.60
26272;DHT22;13997;48.902;12.472;2023-05-10T17:15:35;359.10;2329.60
26272;DHT22;13997;48.902;12.472;2023-05-10T17:18:02;359.10;2329.60
26272;DHT22;13997;48.902;12.472;2023-05-10T17:20:27;359.00;2329.60
26272;DHT22;13997;48.902;12.472;2023-05-10T17:22:53;359.00;2329.60
26272;DHT22;13997;48.902;12.472;2023-05-10T17:25:19;359.00;2329.60